Aviation Digital Data Service (ADDS)

Output produced by METARs form (0633 UTC 27 March 2017)
found at http://www.aviationweather.gov/adds/metars/
 
HRYR 270600Z VRB01KT 9999 FEW026 21/17 Q1022 NOSIG
HRYR 270500Z 2706/2812 34003KT 8000 FEW026 
     FM270800 16006KT 9999 BKN024 
     TEMPO2711/2717 12010G20KT -TSRA FEW023CB BKN025 
     FM272100 32004KT SCT026 SCT100 
     BECMG 2802/2805 00000KT 7000 FEW025 SCT100 
     FM280900 14008KT 9999 BKN025